createdAt,value
2019-05-18T00:01:16.056Z,20.90
2019-05-18T00:04:04.590Z,20.90
2019-05-18T00:06:52.641Z,20.90
2019-05-18T00:09:40.607Z,20.80
2019-05-18T00:12:28.874Z,20.90
2019-05-18T00:15:17.274Z,20.80
2019-05-18T00:18:05.751Z,20.80
2019-05-18T00:20:54.347Z,20.90
2019-05-18T00:23:42.806Z,20.80
2019-05-18T00:26:31.017Z,20.80
2019-05-18T00:29:19.339Z,20.80
2019-05-18T00:32:07.801Z,20.90
2019-05-18T00:34:57.275Z,20.90
2019-05-18T00:37:45.822Z,20.80
2019-05-18T00:40:34.247Z,20.90
2019-05-18T00:43:22.386Z,20.80
2019-05-18T00:46:10.980Z,20.80
2019-05-18T00:48:59.538Z,20.80
2019-05-18T00:51:48.018Z,20.80
2019-05-18T00:54:35.973Z,20.80
2019-05-18T00:57:24.370Z,20.80
2019-05-18T01:00:12.806Z,20.80
2019-05-18T01:03:01.123Z,20.80
2019-05-18T01:05:49.572Z,20.80
2019-05-18T01:08:37.838Z,20.80
2019-05-18T01:11:29.102Z,20.80
2019-05-18T01:14:17.454Z,20.80
2019-05-18T01:17:05.979Z,20.80
2019-05-18T01:19:54.546Z,20.80
2019-05-18T01:22:43.140Z,20.80
2019-05-18T01:25:31.519Z,20.80
2019-05-18T01:28:19.775Z,20.80
2019-05-18T01:31:07.976Z,20.80
2019-05-18T01:33:56.671Z,20.80
2019-05-18T01:36:44.979Z,20.80
2019-05-18T01:39:33.526Z,20.80
2019-05-18T01:42:21.987Z,20.80
2019-05-18T01:45:17.042Z,20.80
2019-05-18T01:48:12.647Z,20.80
2019-05-18T01:50:50.180Z,20.80
2019-05-18T01:53:38.601Z,20.80
2019-05-18T01:56:28.116Z,20.80
2019-05-18T01:59:16.370Z,20.80
2019-05-18T02:02:04.682Z,20.80
2019-05-18T02:04:53.126Z,20.80
2019-05-18T02:07:42.642Z,20.80
2019-05-18T02:10:30.963Z,20.80
2019-05-18T02:13:19.231Z,20.80
2019-05-18T02:16:07.559Z,20.80
2019-05-18T02:18:55.679Z,20.80
2019-05-18T02:21:43.855Z,20.80
2019-05-18T02:24:32.348Z,20.80
2019-05-18T02:27:20.953Z,20.80
2019-05-18T02:30:09.227Z,20.80
2019-05-18T02:32:57.555Z,20.80
2019-05-18T02:35:45.832Z,20.80
2019-05-18T02:38:34.007Z,20.80
2019-05-18T02:41:22.702Z,20.80
2019-05-18T02:44:11.272Z,20.80
2019-05-18T02:46:59.831Z,20.80
2019-05-18T02:49:48.342Z,20.80
2019-05-18T02:52:36.539Z,20.80
2019-05-18T02:55:26.272Z,20.80
2019-05-18T02:58:14.794Z,20.80
2019-05-18T03:01:04.121Z,20.80
2019-05-18T03:03:52.627Z,20.80
2019-05-18T03:06:41.000Z,20.80
2019-05-18T03:09:29.641Z,20.80
2019-05-18T03:12:18.486Z,20.80
2019-05-18T03:15:07.091Z,20.80
2019-05-18T03:17:55.272Z,20.80
2019-05-18T03:20:43.724Z,20.80
2019-05-18T03:23:32.044Z,20.80
2019-05-18T03:26:20.434Z,20.80
2019-05-18T03:29:10.014Z,20.80
2019-05-18T03:31:58.332Z,20.80
2019-05-18T03:34:46.929Z,20.80
2019-05-18T03:37:35.120Z,20.80
2019-05-18T03:40:23.438Z,20.80
2019-05-18T03:43:12.147Z,20.80
2019-05-18T03:46:00.611Z,20.80
2019-05-18T03:48:49.032Z,20.80
2019-05-18T03:51:37.274Z,20.80
2019-05-18T03:54:25.399Z,20.80
2019-05-18T03:57:13.685Z,20.80
2019-05-18T04:00:02.222Z,20.80
2019-05-18T04:02:52.312Z,20.80
2019-05-18T04:05:40.817Z,20.80
2019-05-18T04:08:29.184Z,20.80
2019-05-18T04:11:17.706Z,20.80
2019-05-18T04:14:08.281Z,20.80
2019-05-18T04:16:59.589Z,20.80
2019-05-18T04:19:47.923Z,20.80
2019-05-18T04:22:35.935Z,20.80
2019-05-18T04:25:24.078Z,20.80
2019-05-18T04:28:12.370Z,20.80
2019-05-18T04:31:00.670Z,20.80
2019-05-18T04:33:49.240Z,20.80
2019-05-18T04:36:37.798Z,20.80
2019-05-18T04:39:26.351Z,20.80
2019-05-18T04:42:14.548Z,20.80
2019-05-18T04:45:03.243Z,20.80
2019-05-18T04:47:51.373Z,20.80
2019-05-18T04:50:39.836Z,20.80
2019-05-18T04:53:28.023Z,20.80
2019-05-18T04:56:16.630Z,20.80
2019-05-18T04:59:05.048Z,20.80
2019-05-18T05:01:53.707Z,20.80
2019-05-18T05:04:41.987Z,20.80
2019-05-18T05:07:30.308Z,20.80
2019-05-18T05:10:18.854Z,20.80
2019-05-18T05:13:07.240Z,20.80
2019-05-18T05:15:55.511Z,20.80
2019-05-18T05:18:44.023Z,20.70
2019-05-18T05:21:32.363Z,20.70
2019-05-18T05:24:20.610Z,20.80
2019-05-18T05:27:08.851Z,20.70
2019-05-18T05:29:56.971Z,20.70
2019-05-18T05:32:45.307Z,20.80
2019-05-18T05:35:33.507Z,20.80
2019-05-18T05:38:22.015Z,20.80
2019-05-18T05:41:29.787Z,20.80
2019-05-18T05:44:18.456Z,20.80
2019-05-18T05:47:07.638Z,20.80
2019-05-18T05:49:55.911Z,20.80
2019-05-18T05:52:44.163Z,20.80
2019-05-18T05:55:32.459Z,20.80
2019-05-18T05:58:20.983Z,20.80
2019-05-18T06:01:09.275Z,20.80
2019-05-18T06:03:57.719Z,20.80
2019-05-18T06:06:45.915Z,20.80
2019-05-18T06:09:34.336Z,20.80
2019-05-18T06:12:22.580Z,20.80
2019-05-18T06:15:11.881Z,20.80
2019-05-18T06:18:00.348Z,20.80
2019-05-18T06:20:51.618Z,20.80
2019-05-18T06:23:39.943Z,20.80
2019-05-18T06:26:28.170Z,20.80
2019-05-18T06:29:16.364Z,20.80
2019-05-18T06:32:04.703Z,20.80
2019-05-18T06:34:52.927Z,20.80
2019-05-18T06:37:41.346Z,20.80
2019-05-18T06:40:29.540Z,20.80
2019-05-18T06:43:18.215Z,20.80
2019-05-18T06:46:07.843Z,20.80
2019-05-18T06:48:56.009Z,20.80
2019-05-18T06:51:44.491Z,20.80
2019-05-18T06:54:32.807Z,20.80
2019-05-18T06:57:21.719Z,20.80
2019-05-18T07:00:15.838Z,20.80
2019-05-18T07:03:04.723Z,20.80
2019-05-18T07:05:52.927Z,20.80
2019-05-18T07:08:41.306Z,20.80
2019-05-18T07:11:30.743Z,20.80
2019-05-18T07:14:25.895Z,20.80
2019-05-18T07:17:09.018Z,20.80
2019-05-18T07:19:57.259Z,20.80
2019-05-18T07:22:45.566Z,20.80
2019-05-18T07:25:34.097Z,20.80
2019-05-18T07:28:22.474Z,20.80
2019-05-18T07:31:11.394Z,20.80
2019-05-18T07:33:59.953Z,20.80
2019-05-18T07:36:48.199Z,20.80
2019-05-18T07:39:36.771Z,20.80
2019-05-18T07:42:25.098Z,20.80
2019-05-18T07:45:13.587Z,20.80
2019-05-18T07:48:01.798Z,20.80
2019-05-18T07:50:50.338Z,20.80
2019-05-18T07:53:38.586Z,20.80
2019-05-18T07:56:27.296Z,20.80
2019-05-18T07:59:15.476Z,20.80
2019-05-18T08:02:04.520Z,20.80
2019-05-18T08:04:54.297Z,20.80
2019-05-18T08:07:42.708Z,20.80
2019-05-18T08:10:55.189Z,20.80
2019-05-18T08:13:43.615Z,20.80
2019-05-18T08:16:32.105Z,20.80
2019-05-18T08:19:20.807Z,20.80
2019-05-18T08:22:10.502Z,20.80
2019-05-18T08:24:58.927Z,20.80
2019-05-18T08:27:47.865Z,20.80
2019-05-18T08:30:36.196Z,20.80
2019-05-18T08:33:24.514Z,20.80
2019-05-18T08:36:13.013Z,20.80
2019-05-18T08:39:01.337Z,20.80
2019-05-18T08:41:50.715Z,20.80
2019-05-18T08:44:51.784Z,20.80
2019-05-18T08:47:40.136Z,20.80
2019-05-18T08:50:28.658Z,20.80
2019-05-18T08:53:17.145Z,20.80
2019-05-18T08:56:06.495Z,20.80
2019-05-18T08:58:54.674Z,20.80
2019-05-18T09:01:42.911Z,20.80
2019-05-18T09:04:42.960Z,20.80
2019-05-18T09:07:31.260Z,20.80
2019-05-18T09:10:19.513Z,20.80
2019-05-18T09:13:07.750Z,20.80
2019-05-18T09:15:55.985Z,20.80
2019-05-18T09:18:45.323Z,20.80
2019-05-18T09:21:33.563Z,20.80
2019-05-18T09:24:21.593Z,20.80
2019-05-18T09:27:10.170Z,20.90
2019-05-18T09:29:58.383Z,20.90
2019-05-18T09:32:46.918Z,21.00
2019-05-18T09:35:35.474Z,21.00
2019-05-18T09:38:23.723Z,21.10
2019-05-18T09:41:11.928Z,21.20
2019-05-18T09:43:59.987Z,21.20
2019-05-18T09:46:48.479Z,21.30
2019-05-18T09:49:36.457Z,21.30
2019-05-18T09:52:43.490Z,21.30
2019-05-18T09:55:14.589Z,21.40
2019-05-18T09:58:02.888Z,21.40
2019-05-18T10:00:51.008Z,21.40
2019-05-18T10:03:39.250Z,21.50
2019-05-18T10:06:27.646Z,21.50
2019-05-18T10:09:16.135Z,21.50
2019-05-18T10:12:04.311Z,21.60
2019-05-18T10:14:52.565Z,21.60
2019-05-18T10:17:40.778Z,21.70
2019-05-18T10:20:29.395Z,21.70
2019-05-18T10:23:17.292Z,21.70
2019-05-18T10:26:05.576Z,21.80
2019-05-18T10:28:53.959Z,21.80
2019-05-18T10:31:42.196Z,21.80
2019-05-18T10:34:30.734Z,21.80
2019-05-18T10:37:18.950Z,21.80
2019-05-18T10:40:08.255Z,21.90
2019-05-18T10:42:56.861Z,21.90
2019-05-18T10:45:45.495Z,21.90
2019-05-18T10:48:34.066Z,21.90
2019-05-18T10:51:22.433Z,21.90
2019-05-18T10:54:10.691Z,21.90
2019-05-18T10:56:59.155Z,22.00
2019-05-18T11:00:12.078Z,21.90
2019-05-18T11:03:00.503Z,21.90
2019-05-18T11:05:48.738Z,22.10
2019-05-18T11:08:38.468Z,22.20
2019-05-18T11:11:27.928Z,22.20
2019-05-18T11:14:18.764Z,22.20
2019-05-18T11:17:05.776Z,22.40
2019-05-18T11:19:54.232Z,22.60
2019-05-18T11:22:43.603Z,22.80
2019-05-18T11:25:32.055Z,22.80
2019-05-18T11:28:20.667Z,22.80
2019-05-18T11:31:09.142Z,22.70
2019-05-18T11:34:00.264Z,22.60
2019-05-18T11:36:48.752Z,22.60
2019-05-18T11:42:43.630Z,22.60
2019-05-18T11:45:32.173Z,22.60
2019-05-18T11:48:20.657Z,22.60
2019-05-18T11:51:09.244Z,22.50
2019-05-18T11:53:58.683Z,22.50
2019-05-18T11:56:47.034Z,22.50
2019-05-18T11:59:35.572Z,22.60
2019-05-18T12:02:24.120Z,22.70
2019-05-18T12:05:12.951Z,22.70
2019-05-18T12:08:01.333Z,22.70
2019-05-18T12:10:49.842Z,22.70
2019-05-18T12:13:38.303Z,22.70
2019-05-18T12:16:26.696Z,22.70
2019-05-18T12:19:14.987Z,22.70
2019-05-18T12:22:03.597Z,22.80
2019-05-18T12:24:51.860Z,22.80
2019-05-18T12:27:40.267Z,22.70
2019-05-18T12:30:28.571Z,22.70
2019-05-18T12:33:18.936Z,22.70
2019-05-18T12:36:07.669Z,22.80
2019-05-18T12:38:55.935Z,22.80
2019-05-18T12:41:44.359Z,22.70
2019-05-18T12:44:32.529Z,22.70
2019-05-18T12:47:22.249Z,22.70
2019-05-18T12:50:10.817Z,22.70
2019-05-18T12:52:59.074Z,22.70
2019-05-18T12:56:23.581Z,22.70
2019-05-18T12:59:30.029Z,22.80
2019-05-18T13:02:19.114Z,22.80
2019-05-18T13:05:07.453Z,22.60
2019-05-18T13:07:55.553Z,22.60
2019-05-18T13:10:43.999Z,22.60
2019-05-18T13:13:32.525Z,22.70
2019-05-18T13:16:20.841Z,22.90
2019-05-18T13:19:09.394Z,22.90
2019-05-18T13:21:57.759Z,22.90
2019-05-18T13:24:46.001Z,22.70
2019-05-18T13:27:39.226Z,22.70
2019-05-18T13:30:24.460Z,22.80
2019-05-18T13:33:12.722Z,22.90
2019-05-18T13:39:15.837Z,23.00
2019-05-18T13:42:04.312Z,23.00
2019-05-18T13:44:52.642Z,22.90
2019-05-18T13:47:41.066Z,22.90
2019-05-18T13:50:29.712Z,23.00
2019-05-18T13:53:17.959Z,23.00
2019-05-18T13:56:06.246Z,23.00
2019-05-18T13:58:54.518Z,22.90
2019-05-18T14:01:43.003Z,22.80
2019-05-18T14:04:31.682Z,22.80
2019-05-18T14:07:20.257Z,22.80
2019-05-18T14:10:08.670Z,22.70
2019-05-18T14:12:57.070Z,22.80
2019-05-18T14:15:45.354Z,22.90
2019-05-18T14:18:33.826Z,22.90
2019-05-18T14:21:22.416Z,23.00
2019-05-18T14:24:10.458Z,23.00
2019-05-18T14:26:58.759Z,22.90
2019-05-18T14:29:46.940Z,22.80
2019-05-18T14:32:35.179Z,22.70
2019-05-18T14:35:23.950Z,22.70
2019-05-18T14:38:12.759Z,22.90
2019-05-18T14:41:01.828Z,22.90
2019-05-18T14:43:50.135Z,22.90
2019-05-18T14:46:38.668Z,23.00
2019-05-18T14:49:27.343Z,23.00
2019-05-18T14:52:15.488Z,23.00
2019-05-18T14:55:04.642Z,22.80
2019-05-18T14:57:54.469Z,22.80
2019-05-18T15:00:42.661Z,22.80
2019-05-18T15:03:30.935Z,22.80
2019-05-18T15:06:19.283Z,22.80
2019-05-18T15:09:07.816Z,22.70
2019-05-18T15:11:56.431Z,22.90
2019-05-18T15:14:45.523Z,23.00
2019-05-18T15:17:34.065Z,23.00
2019-05-18T15:20:22.271Z,22.90
2019-05-18T15:23:10.730Z,22.80
2019-05-18T15:25:59.061Z,22.90
2019-05-18T15:28:47.774Z,22.90
2019-05-18T15:31:36.072Z,22.80
2019-05-18T15:34:24.355Z,22.70
2019-05-18T15:37:12.493Z,22.70
2019-05-18T15:40:01.087Z,22.60
2019-05-18T15:42:52.118Z,22.70
2019-05-18T15:45:40.868Z,22.80
2019-05-18T15:48:29.447Z,22.80
2019-05-18T15:51:17.515Z,22.80
2019-05-18T15:54:06.491Z,22.70
2019-05-18T15:57:07.284Z,22.70
2019-05-18T15:59:55.733Z,22.90
2019-05-18T16:02:44.127Z,22.90
2019-05-18T16:05:32.735Z,22.90
2019-05-18T16:08:21.090Z,22.90
2019-05-18T16:11:09.527Z,22.80
2019-05-18T16:13:57.838Z,22.90
2019-05-18T16:16:45.979Z,22.90
2019-05-18T16:19:34.311Z,22.90
2019-05-18T16:22:22.526Z,22.90
2019-05-18T16:25:11.101Z,22.80
2019-05-18T16:27:59.303Z,22.80
2019-05-18T16:30:48.314Z,22.80
2019-05-18T16:33:36.651Z,22.80
2019-05-18T16:36:25.148Z,22.80
2019-05-18T16:39:13.865Z,22.80
2019-05-18T16:42:21.301Z,22.70
2019-05-18T16:45:10.538Z,22.70
2019-05-18T16:47:58.764Z,22.70
2019-05-18T16:50:47.441Z,22.80
2019-05-18T16:53:35.741Z,22.70
2019-05-18T16:56:34.528Z,22.70
2019-05-18T16:59:20.070Z,22.80
2019-05-18T17:02:12.155Z,22.90
2019-05-18T17:05:01.331Z,22.70
2019-05-18T17:07:50.083Z,22.80
2019-05-18T17:10:42.827Z,22.70
2019-05-18T17:13:37.054Z,22.60
2019-05-18T17:16:28.107Z,22.70
2019-05-18T17:19:19.639Z,22.70
2019-05-18T17:22:08.001Z,22.80
2019-05-18T17:24:56.329Z,22.70
2019-05-18T17:27:46.428Z,22.70
2019-05-18T17:30:34.926Z,22.60
2019-05-18T17:33:23.174Z,22.60
2019-05-18T17:36:19.723Z,22.50
2019-05-18T17:39:08.671Z,22.50
2019-05-18T17:42:00.228Z,22.50
2019-05-18T17:44:54.733Z,22.50
2019-05-18T17:47:45.175Z,22.50
2019-05-18T17:50:33.666Z,22.40
2019-05-18T17:53:22.305Z,22.40
2019-05-18T17:56:10.983Z,22.40
2019-05-18T17:58:59.355Z,22.30
2019-05-18T18:01:47.935Z,22.30
2019-05-18T18:04:36.333Z,22.40
2019-05-18T18:07:24.859Z,22.40
2019-05-18T18:10:13.655Z,22.30
2019-05-18T18:13:02.227Z,22.30
2019-05-18T18:15:51.565Z,22.30
2019-05-18T18:18:39.588Z,22.20
2019-05-18T18:21:27.986Z,22.20
2019-05-18T18:24:20.782Z,22.20
2019-05-18T18:27:24.212Z,22.20
2019-05-18T18:30:00.040Z,22.10
2019-05-18T18:32:48.206Z,22.10
2019-05-18T18:35:39.550Z,22.10
2019-05-18T18:38:26.851Z,22.20
2019-05-18T18:41:15.167Z,22.20
2019-05-18T18:44:04.131Z,22.30
2019-05-18T18:46:52.397Z,22.30
2019-05-18T18:49:40.866Z,22.30
2019-05-18T18:52:29.190Z,22.30
2019-05-18T18:55:17.901Z,22.30
2019-05-18T18:58:06.408Z,22.30
2019-05-18T19:00:54.802Z,22.30
2019-05-18T19:03:43.235Z,22.30
2019-05-18T19:06:37.719Z,22.30
2019-05-18T19:09:25.828Z,22.20
2019-05-18T19:12:15.388Z,22.20
2019-05-18T19:15:08.337Z,22.20
2019-05-18T19:17:57.233Z,22.10
2019-05-18T19:20:48.735Z,22.10
2019-05-18T19:23:40.608Z,22.10
2019-05-18T19:26:28.763Z,22.10
2019-05-18T19:29:18.170Z,22.00
2019-05-18T19:32:07.344Z,22.00
2019-05-18T19:34:55.830Z,21.90
2019-05-18T19:37:43.937Z,21.90
2019-05-18T19:40:32.458Z,21.90
2019-05-18T19:43:20.575Z,21.90
2019-05-18T19:46:09.079Z,21.90
2019-05-18T19:48:57.460Z,21.90
2019-05-18T19:51:45.716Z,21.90
2019-05-18T19:54:33.960Z,21.90
2019-05-18T19:57:22.206Z,21.90
2019-05-18T20:00:10.935Z,21.90
2019-05-18T20:02:59.363Z,21.90
2019-05-18T20:05:47.384Z,22.00
2019-05-18T20:08:35.658Z,22.00
2019-05-18T20:11:23.941Z,22.00
2019-05-18T20:14:12.576Z,22.00
2019-05-18T20:17:00.895Z,22.00
2019-05-18T20:19:49.374Z,22.00
2019-05-18T20:22:38.298Z,22.00
2019-05-18T20:25:26.619Z,21.90
2019-05-18T20:28:23.294Z,21.90
2019-05-18T20:31:04.817Z,21.90
2019-05-18T20:33:54.654Z,21.90
2019-05-18T20:36:43.765Z,21.90
2019-05-18T20:39:31.950Z,21.90
2019-05-18T20:42:20.148Z,21.90
2019-05-18T20:45:08.131Z,21.90
2019-05-18T20:47:56.368Z,21.90
2019-05-18T20:50:44.854Z,21.90
2019-05-18T20:53:33.401Z,21.90
2019-05-18T20:56:22.124Z,22.00
2019-05-18T20:59:10.293Z,21.90
2019-05-18T21:01:58.649Z,22.00
2019-05-18T21:04:47.175Z,22.00
2019-05-18T21:07:35.814Z,22.00
2019-05-18T21:10:24.486Z,22.00
2019-05-18T21:13:13.024Z,21.90
2019-05-18T21:16:01.295Z,21.90
2019-05-18T21:18:49.656Z,21.80
2019-05-18T21:21:38.352Z,21.90
2019-05-18T21:24:26.614Z,21.90
2019-05-18T21:27:14.909Z,21.90
2019-05-18T21:30:02.870Z,21.90
2019-05-18T21:32:51.494Z,21.90
2019-05-18T21:35:39.826Z,21.90
2019-05-18T21:38:28.096Z,21.80
2019-05-18T21:41:16.705Z,21.80
2019-05-18T21:44:04.963Z,21.80
2019-05-18T21:46:53.398Z,21.80
2019-05-18T21:49:41.666Z,21.80
2019-05-18T21:52:29.894Z,21.80
2019-05-18T21:55:18.255Z,21.80
2019-05-18T21:58:06.923Z,21.80
2019-05-18T22:00:56.664Z,21.80
2019-05-18T22:04:04.488Z,21.80
2019-05-18T22:06:52.822Z,21.80
2019-05-18T22:09:40.957Z,21.80
2019-05-18T22:12:29.640Z,21.80
2019-05-18T22:15:19.995Z,21.80
2019-05-18T22:18:22.202Z,21.80
2019-05-18T22:21:11.852Z,21.80
2019-05-18T22:24:00.087Z,21.70
2019-05-18T22:26:48.655Z,21.80
2019-05-18T22:29:37.307Z,21.80
2019-05-18T22:32:25.939Z,21.80
2019-05-18T22:35:14.507Z,21.80
2019-05-18T22:38:02.810Z,21.80
2019-05-18T22:40:50.792Z,21.80
2019-05-18T22:43:39.194Z,21.80
2019-05-18T22:46:29.647Z,21.80
2019-05-18T22:49:18.114Z,21.80
2019-05-18T22:52:06.079Z,21.80
2019-05-18T22:54:54.632Z,21.80
2019-05-18T22:57:43.776Z,21.70
2019-05-18T23:04:04.679Z,21.70
2019-05-18T23:06:52.894Z,21.70
2019-05-18T23:09:41.588Z,21.70
2019-05-18T23:12:30.027Z,21.70
2019-05-18T23:15:18.291Z,21.70
2019-05-18T23:18:06.783Z,21.70
2019-05-18T23:20:55.366Z,21.70
2019-05-18T23:23:43.631Z,21.70
2019-05-18T23:26:31.894Z,21.70
2019-05-18T23:29:20.143Z,21.70
2019-05-18T23:32:08.670Z,21.70
2019-05-18T23:34:57.419Z,21.70
2019-05-18T23:37:45.599Z,21.70
2019-05-18T23:40:33.902Z,21.70
2019-05-18T23:43:22.164Z,21.70
2019-05-18T23:46:10.775Z,21.70
2019-05-18T23:49:10.043Z,21.70
2019-05-18T23:51:49.164Z,21.70
2019-05-18T23:54:37.155Z,21.70
2019-05-18T23:57:25.685Z,21.70
